createdAt,value
2022-09-20T00:01:32.699Z,69.44
2022-09-20T00:04:02.355Z,70.39
2022-09-20T00:06:31.536Z,70.48
2022-09-20T00:08:59.741Z,70.66
2022-09-20T00:11:29.211Z,72.02
2022-09-20T00:13:57.648Z,70.63
2022-09-20T00:16:30.237Z,70.75
2022-09-20T00:19:04.424Z,71.23
2022-09-20T00:21:32.996Z,70.89
2022-09-20T00:24:00.120Z,70.09
2022-09-20T00:26:27.712Z,69.87
2022-09-20T00:28:55.286Z,69.81
2022-09-20T00:31:23.204Z,69.47
2022-09-20T00:34:36.559Z,69.73
2022-09-20T00:37:15.369Z,69.77
2022-09-20T00:39:41.936Z,69.64
2022-09-20T00:42:14.179Z,69.89
2022-09-20T00:44:42.781Z,69.86
2022-09-20T00:47:41.985Z,69.86
2022-09-20T00:50:38.184Z,70.04
2022-09-20T00:53:36.983Z,69.99
2022-09-20T00:56:11.472Z,69.97
2022-09-20T00:58:49.755Z,69.41
2022-09-20T01:01:17.224Z,70.19
2022-09-20T01:03:44.071Z,70.68
2022-09-20T01:06:15.559Z,69.81
2022-09-20T01:12:22.759Z,69.31
2022-09-20T01:14:51.254Z,69.03
2022-09-20T01:17:19.870Z,68.68
2022-09-20T01:20:12.578Z,69.74
2022-09-20T01:22:51.709Z,70.31
2022-09-20T01:25:51.313Z,69.52
2022-09-20T01:28:18.096Z,68.81
2022-09-20T01:31:03.640Z,68.67
2022-09-20T01:33:53.729Z,68.65
2022-09-20T01:36:57.891Z,68.63
2022-09-20T01:39:29.439Z,68.98
2022-09-20T01:42:14.429Z,69.11
2022-09-20T01:45:00.148Z,69.38
2022-09-20T01:47:48.542Z,69.58
2022-09-20T01:50:35.041Z,68.98
2022-09-20T01:53:04.466Z,68.54
2022-09-20T01:55:49.449Z,68.45
2022-09-20T01:58:46.945Z,68.65
2022-09-20T02:01:38.756Z,68.66
2022-09-20T02:04:14.265Z,68.36
2022-09-20T02:06:53.943Z,68.38
2022-09-20T02:09:29.530Z,68.29
2022-09-20T02:12:17.404Z,68.41
2022-09-20T02:15:10.171Z,68.43
2022-09-20T02:18:26.214Z,68.36
2022-09-20T02:21:35.031Z,68.74
2022-09-20T02:24:17.452Z,68.56
2022-09-20T02:26:58.807Z,68.60
2022-09-20T02:29:52.907Z,68.86
2022-09-20T02:32:54.745Z,69.25
2022-09-20T02:36:01.928Z,69.04
2022-09-20T02:38:59.105Z,69.17
2022-09-20T02:41:28.320Z,68.87
2022-09-20T02:44:04.172Z,68.71
2022-09-20T02:46:41.197Z,68.77
2022-09-20T02:49:47.528Z,68.75
2022-09-20T02:53:01.215Z,69.12
2022-09-20T02:55:52.656Z,69.71
2022-09-20T02:58:40.261Z,69.85
2022-09-20T03:01:25.077Z,69.83
2022-09-20T03:04:00.637Z,69.65
2022-09-20T03:06:39.376Z,69.85
2022-09-20T03:09:05.832Z,69.51
2022-09-20T03:12:09.563Z,69.45
2022-09-20T03:14:37.589Z,68.82
2022-09-20T03:17:27.381Z,68.70
2022-09-20T03:20:29.036Z,68.39
2022-09-20T03:23:19.993Z,68.12
2022-09-20T03:26:50.281Z,68.14
2022-09-20T03:29:43.009Z,68.81
2022-09-20T03:32:28.319Z,68.77
2022-09-20T03:34:57.936Z,68.66
2022-09-20T03:37:45.240Z,68.82
2022-09-20T03:40:24.701Z,68.97
2022-09-20T03:42:58.575Z,69.39
2022-09-20T03:45:56.211Z,69.50
2022-09-20T03:48:51.996Z,69.40
2022-09-20T03:51:34.467Z,69.66
2022-09-20T03:54:38.773Z,69.64
2022-09-20T03:57:19.421Z,70.38
2022-09-20T04:00:35.842Z,70.30
2022-09-20T04:03:43.107Z,69.97
2022-09-20T04:06:31.649Z,70.06
2022-09-20T04:09:47.671Z,70.22
2022-09-20T04:12:30.840Z,70.11
2022-09-20T04:14:57.378Z,70.05
2022-09-20T04:17:49.243Z,69.85
2022-09-20T04:20:55.984Z,69.46
2022-09-20T04:23:33.573Z,69.03
2022-09-20T04:26:02.309Z,68.92
2022-09-20T04:28:56.971Z,68.81
2022-09-20T04:31:37.378Z,69.02
2022-09-20T04:37:39.717Z,69.60
2022-09-20T04:40:31.045Z,69.71
2022-09-20T04:43:17.381Z,69.49
2022-09-20T04:46:13.730Z,70.02
2022-09-20T04:48:58.754Z,70.10
2022-09-20T04:52:04.008Z,69.92
2022-09-20T04:54:53.176Z,70.98
2022-09-20T04:57:34.429Z,71.37
2022-09-20T05:00:16.950Z,71.70
2022-09-20T05:03:02.120Z,71.43
2022-09-20T05:05:49.715Z,71.65
2022-09-20T05:08:58.803Z,71.17
2022-09-20T05:12:08.743Z,70.69
2022-09-20T05:15:13.154Z,70.13
2022-09-20T05:17:45.831Z,69.95
2022-09-20T05:20:27.691Z,69.65
2022-09-20T05:23:12.934Z,69.54
2022-09-20T05:25:45.043Z,70.04
2022-09-20T05:28:30.301Z,69.48
2022-09-20T05:31:26.143Z,70.26
2022-09-20T05:34:02.905Z,70.37
2022-09-20T05:36:50.642Z,70.50
2022-09-20T05:39:32.507Z,70.08
2022-09-20T05:42:14.572Z,69.77
2022-09-20T05:45:23.469Z,69.49
2022-09-20T05:48:24.649Z,69.79
2022-09-20T05:51:06.515Z,69.26
2022-09-20T05:53:41.810Z,69.51
2022-09-20T05:56:34.892Z,68.99
2022-09-20T05:59:21.617Z,68.90
2022-09-20T06:02:27.357Z,68.10
2022-09-20T06:05:12.623Z,67.46
2022-09-20T06:07:54.104Z,68.33
2022-09-20T06:10:26.112Z,67.91
2022-09-20T06:13:09.737Z,67.87
2022-09-20T06:15:44.891Z,68.30
2022-09-20T06:18:52.790Z,66.85
2022-09-20T06:22:03.944Z,66.77
2022-09-20T06:24:47.586Z,67.00
2022-09-20T06:27:32.573Z,66.54
2022-09-20T06:30:05.987Z,66.45
2022-09-20T06:32:34.731Z,66.52
2022-09-20T06:35:02.920Z,65.82
2022-09-20T06:38:09.652Z,65.96
2022-09-20T06:41:04.244Z,66.58
2022-09-20T06:43:31.619Z,66.10
2022-09-20T06:45:58.794Z,65.64
2022-09-20T06:48:25.421Z,65.28
2022-09-20T06:50:52.627Z,66.01
2022-09-20T06:53:26.788Z,66.17
2022-09-20T06:55:53.589Z,65.95
2022-09-20T06:58:20.116Z,66.94
2022-09-20T07:00:46.934Z,66.57
2022-09-20T07:03:13.612Z,66.32
2022-09-20T07:05:40.205Z,65.25
2022-09-20T07:08:06.843Z,65.12
2022-09-20T07:10:33.780Z,63.85
2022-09-20T07:13:02.000Z,64.41
2022-09-20T07:15:30.954Z,63.97
2022-09-20T07:17:57.495Z,63.94
2022-09-20T07:20:24.084Z,63.14
2022-09-20T07:22:51.638Z,62.54
2022-09-20T07:25:18.452Z,62.41
2022-09-20T07:27:46.478Z,61.69
2022-09-20T07:30:17.431Z,62.86
2022-09-20T07:32:44.077Z,62.47
2022-09-20T07:35:11.960Z,62.91
2022-09-20T07:37:41.404Z,62.34
2022-09-20T07:40:10.535Z,62.33
2022-09-20T07:42:37.308Z,61.60
2022-09-20T07:45:04.744Z,61.16
2022-09-20T07:47:35.463Z,61.04
2022-09-20T07:50:02.865Z,59.89
2022-09-20T07:52:35.609Z,59.30
2022-09-20T07:55:02.186Z,58.83
2022-09-20T07:57:28.756Z,58.59
2022-09-20T07:59:55.294Z,58.73
2022-09-20T08:02:21.842Z,58.56
2022-09-20T08:04:49.910Z,59.39
2022-09-20T08:07:47.672Z,58.91
2022-09-20T08:10:36.018Z,58.13
2022-09-20T08:16:07.556Z,58.77
2022-09-20T08:18:35.176Z,58.61
2022-09-20T08:21:06.712Z,59.31
2022-09-20T08:23:41.000Z,58.74
2022-09-20T08:26:26.954Z,58.79
2022-09-20T08:28:58.958Z,58.56
2022-09-20T08:31:34.520Z,58.88
2022-09-20T08:34:03.769Z,58.35
2022-09-20T08:36:36.056Z,57.70
2022-09-20T08:42:43.758Z,56.49
2022-09-20T08:45:41.963Z,56.58
2022-09-20T08:48:16.380Z,57.10
2022-09-20T08:50:43.828Z,57.17
2022-09-20T08:53:14.859Z,56.29
2022-09-20T08:55:42.931Z,55.94
2022-09-20T08:58:12.035Z,55.54
2022-09-20T09:00:47.002Z,56.50
2022-09-20T09:03:16.946Z,55.44
2022-09-20T09:05:47.775Z,55.31
2022-09-20T09:08:18.709Z,55.69
2022-09-20T09:10:54.206Z,56.30
2022-09-20T09:13:54.549Z,56.19
2022-09-20T09:16:35.245Z,55.65
2022-09-20T09:20:00.347Z,55.16
2022-09-20T09:22:42.983Z,54.81
2022-09-20T09:25:18.567Z,54.08
2022-09-20T09:27:57.624Z,54.97
2022-09-20T09:30:31.713Z,54.44
2022-09-20T09:33:19.995Z,54.05
2022-09-20T09:36:25.708Z,53.82
2022-09-20T09:39:29.148Z,53.57
2022-09-20T09:41:57.312Z,53.79
2022-09-20T09:44:35.507Z,53.27
2022-09-20T09:47:02.343Z,53.02
2022-09-20T09:49:36.594Z,52.58
2022-09-20T09:52:27.915Z,52.57
2022-09-20T09:55:02.082Z,52.80
2022-09-20T09:58:14.560Z,53.85
2022-09-20T10:00:46.601Z,55.07
2022-09-20T10:03:25.438Z,52.53
2022-09-20T10:06:16.713Z,51.95
2022-09-20T10:09:04.428Z,51.01
2022-09-20T10:11:49.713Z,51.41
2022-09-20T10:14:34.509Z,50.91
2022-09-20T10:17:21.271Z,50.40
2022-09-20T10:20:10.724Z,50.96
2022-09-20T10:26:08.883Z,50.32
2022-09-20T10:28:53.262Z,50.23
2022-09-20T10:31:26.112Z,49.20
2022-09-20T10:34:11.316Z,49.41
2022-09-20T10:37:06.746Z,49.95
2022-09-20T10:39:36.250Z,49.04
2022-09-20T10:42:46.626Z,49.65
2022-09-20T10:45:59.227Z,49.38
2022-09-20T10:48:21.206Z,51.04
2022-09-20T10:51:00.286Z,48.51
2022-09-20T10:54:06.175Z,48.66
2022-09-20T10:56:39.544Z,47.89
2022-09-20T10:59:12.427Z,48.53
2022-09-20T11:01:38.873Z,48.27
2022-09-20T11:04:38.766Z,47.85
2022-09-20T11:07:17.225Z,46.87
2022-09-20T11:09:51.200Z,48.11
2022-09-20T11:12:32.367Z,48.00
2022-09-20T11:15:05.191Z,47.40
2022-09-20T11:17:41.462Z,50.80
2022-09-20T11:20:20.660Z,51.13
2022-09-20T11:22:52.525Z,51.85
2022-09-20T11:25:29.341Z,51.36
2022-09-20T11:28:05.520Z,51.18
2022-09-20T11:30:38.596Z,51.45
2022-09-20T11:33:22.470Z,52.56
2022-09-20T11:35:56.174Z,51.25
2022-09-20T11:38:25.444Z,51.31
2022-09-20T11:41:33.105Z,52.25
2022-09-20T11:44:07.823Z,53.55
2022-09-20T11:46:52.360Z,55.03
2022-09-20T11:49:59.355Z,55.99
2022-09-20T11:53:03.596Z,56.18
2022-09-20T11:59:23.073Z,56.60
2022-09-20T12:01:56.797Z,53.64
2022-09-20T12:04:33.248Z,53.47
2022-09-20T12:07:18.423Z,53.21
2022-09-20T12:09:58.337Z,52.90
2022-09-20T12:12:31.374Z,53.69
2022-09-20T12:15:01.522Z,51.66
2022-09-20T12:17:46.236Z,51.30
2022-09-20T12:20:42.558Z,51.83
2022-09-20T12:23:43.245Z,50.83
2022-09-20T12:26:15.636Z,51.87
2022-09-20T12:28:50.816Z,51.18
2022-09-20T12:31:26.022Z,51.11
2022-09-20T12:34:33.603Z,49.78
2022-09-20T12:37:00.154Z,49.38
2022-09-20T12:39:37.738Z,49.05
2022-09-20T12:42:28.223Z,49.19
2022-09-20T12:45:32.151Z,48.75
2022-09-20T12:47:58.947Z,48.91
2022-09-20T12:50:44.060Z,49.67
2022-09-20T12:53:16.713Z,49.69
2022-09-20T12:56:12.485Z,49.62
2022-09-20T12:58:45.294Z,50.83
2022-09-20T13:01:56.484Z,50.05
2022-09-20T13:04:51.292Z,48.39
2022-09-20T13:07:33.407Z,48.80
2022-09-20T13:10:15.119Z,50.02
2022-09-20T13:12:43.398Z,50.45
2022-09-20T13:15:18.675Z,49.25
2022-09-20T13:17:52.000Z,47.69
2022-09-20T13:20:23.968Z,49.07
2022-09-20T13:22:56.015Z,47.59
2022-09-20T13:25:25.324Z,48.20
2022-09-20T13:28:09.714Z,49.66
2022-09-20T13:30:37.087Z,49.25
2022-09-20T13:33:25.369Z,48.42
2022-09-20T13:35:58.113Z,47.93
2022-09-20T13:38:30.081Z,48.47
2022-09-20T13:41:06.342Z,48.41
2022-09-20T13:43:36.628Z,48.98
2022-09-20T13:46:12.295Z,48.78
2022-09-20T13:48:40.338Z,49.38
2022-09-20T13:51:23.506Z,49.94
2022-09-20T13:53:50.206Z,50.96
2022-09-20T13:56:18.944Z,49.38
2022-09-20T13:58:45.821Z,49.23
2022-09-20T14:01:30.487Z,49.79
2022-09-20T14:04:05.031Z,51.05
2022-09-20T14:06:32.352Z,52.08
2022-09-20T14:09:02.611Z,52.29
2022-09-20T14:11:31.239Z,52.04
2022-09-20T14:14:02.933Z,51.48
2022-09-20T14:16:32.861Z,50.80
2022-09-20T14:19:00.813Z,50.56
2022-09-20T14:21:31.744Z,50.52
2022-09-20T14:24:05.686Z,50.91
2022-09-20T14:26:36.331Z,50.50
2022-09-20T14:29:31.765Z,51.15
2022-09-20T14:32:00.791Z,50.25
2022-09-20T14:34:27.860Z,48.29
2022-09-20T14:37:05.372Z,46.40
2022-09-20T14:39:33.487Z,45.55
2022-09-20T14:42:00.215Z,45.82
2022-09-20T14:44:33.677Z,46.39
2022-09-20T14:47:00.402Z,45.90
2022-09-20T14:49:26.917Z,46.25
2022-09-20T14:51:54.554Z,46.98
2022-09-20T14:54:41.306Z,46.23
2022-09-20T14:57:08.883Z,46.68
2022-09-20T14:59:39.941Z,47.78
2022-09-20T15:02:16.052Z,48.82
2022-09-20T15:04:54.360Z,48.57
2022-09-20T15:07:21.248Z,48.35
2022-09-20T15:09:47.950Z,48.26
2022-09-20T15:12:17.662Z,48.15
2022-09-20T15:14:44.619Z,48.02
2022-09-20T15:17:18.029Z,47.75
2022-09-20T15:19:45.938Z,50.26
2022-09-20T15:22:12.804Z,48.60
2022-09-20T15:24:39.986Z,48.10
2022-09-20T15:27:07.052Z,48.11
2022-09-20T15:29:33.956Z,48.36
2022-09-20T15:32:00.629Z,49.25
2022-09-20T15:34:27.255Z,49.48
2022-09-20T15:36:54.715Z,49.61
2022-09-20T15:39:22.376Z,50.25
2022-09-20T15:41:52.617Z,51.05
2022-09-20T15:44:19.301Z,51.07
2022-09-20T15:46:46.611Z,51.27
2022-09-20T15:49:13.231Z,51.62
2022-09-20T15:51:39.965Z,49.90
2022-09-20T15:54:07.746Z,50.18
2022-09-20T15:56:37.117Z,49.62
2022-09-20T15:59:06.211Z,49.33
2022-09-20T16:01:39.772Z,49.37
2022-09-20T16:04:12.430Z,49.22
2022-09-20T16:06:40.922Z,49.23
2022-09-20T16:09:08.419Z,49.17
2022-09-20T16:11:35.356Z,49.58
2022-09-20T16:14:02.737Z,49.40
2022-09-20T16:16:31.903Z,51.81
2022-09-20T16:19:19.890Z,51.49
2022-09-20T16:21:52.508Z,51.62
2022-09-20T16:24:31.828Z,52.38
2022-09-20T16:26:59.281Z,52.70
2022-09-20T16:29:26.110Z,52.83
2022-09-20T16:31:54.542Z,53.43
2022-09-20T16:34:24.280Z,52.98
2022-09-20T16:36:53.852Z,53.25
2022-09-20T16:39:26.222Z,53.53
2022-09-20T16:41:53.084Z,53.93
2022-09-20T16:44:19.680Z,54.35
2022-09-20T16:46:47.265Z,54.56
2022-09-20T16:49:14.186Z,54.63
2022-09-20T16:51:42.942Z,54.68
2022-09-20T16:54:12.601Z,54.24
2022-09-20T16:56:49.176Z,55.43
2022-09-20T16:59:18.639Z,54.86
2022-09-20T17:01:45.537Z,55.56
2022-09-20T17:04:14.386Z,55.26
2022-09-20T17:06:43.413Z,56.28
2022-09-20T17:09:11.137Z,55.99
2022-09-20T17:11:40.628Z,56.28
2022-09-20T17:14:09.162Z,56.48
2022-09-20T17:16:38.253Z,57.01
2022-09-20T17:19:07.445Z,57.73
2022-09-20T17:21:36.055Z,57.21
2022-09-20T17:24:04.165Z,57.23
2022-09-20T17:26:36.696Z,57.83
2022-09-20T17:29:06.637Z,58.73
2022-09-20T17:31:38.226Z,58.93
2022-09-20T17:34:07.715Z,58.83
2022-09-20T17:36:39.654Z,58.46
2022-09-20T17:39:10.885Z,58.38
2022-09-20T17:41:38.236Z,58.41
2022-09-20T17:44:09.848Z,58.14
2022-09-20T17:46:38.467Z,57.55
2022-09-20T17:49:08.707Z,57.70
2022-09-20T17:51:40.309Z,57.44
2022-09-20T17:54:08.583Z,56.10
2022-09-20T17:56:37.523Z,55.74
2022-09-20T17:59:05.927Z,55.05
2022-09-20T18:01:34.534Z,54.82
2022-09-20T18:04:02.389Z,54.25
2022-09-20T18:06:50.064Z,54.55
2022-09-20T18:09:18.925Z,55.52
2022-09-20T18:11:53.220Z,56.28
2022-09-20T18:14:23.271Z,56.22
2022-09-20T18:16:55.476Z,56.56
2022-09-20T18:19:22.901Z,57.01
2022-09-20T18:21:50.035Z,56.62
2022-09-20T18:24:16.756Z,56.95
2022-09-20T18:26:44.516Z,56.66
2022-09-20T18:29:17.980Z,56.97
2022-09-20T18:31:56.804Z,56.77
2022-09-20T18:34:26.795Z,57.19
2022-09-20T18:36:55.536Z,58.64
2022-09-20T18:39:31.021Z,58.15
2022-09-20T18:41:57.576Z,58.69
2022-09-20T18:44:24.239Z,58.45
2022-09-20T18:46:54.204Z,58.01
2022-09-20T18:49:21.657Z,57.88
2022-09-20T18:51:49.298Z,57.98
2022-09-20T18:54:16.746Z,58.17
2022-09-20T18:56:45.369Z,58.10
2022-09-20T18:59:25.387Z,58.48
2022-09-20T19:01:55.182Z,58.30
2022-09-20T19:04:43.891Z,58.42
2022-09-20T19:07:29.874Z,58.46
2022-09-20T19:10:08.856Z,58.84
2022-09-20T19:12:54.348Z,58.31
2022-09-20T19:18:35.678Z,57.88
2022-09-20T19:21:35.457Z,58.23
2022-09-20T19:24:21.724Z,58.21
2022-09-20T19:26:48.877Z,58.53
2022-09-20T19:29:33.786Z,58.69
2022-09-20T19:32:00.926Z,59.34
2022-09-20T19:34:35.292Z,60.16
2022-09-20T19:50:42.205Z,58.45
2022-09-20T19:53:09.736Z,58.53
2022-09-20T19:55:36.993Z,58.41
2022-09-20T20:00:39.536Z,58.72
2022-09-20T20:03:06.699Z,58.71
2022-09-20T20:05:33.669Z,59.06
2022-09-20T20:08:12.649Z,59.04
2022-09-20T20:10:52.371Z,59.13
2022-09-20T20:14:00.384Z,59.00
2022-09-20T20:16:59.873Z,59.13
2022-09-20T20:19:44.368Z,59.17
2022-09-20T20:22:45.837Z,59.26
2022-09-20T20:29:26.385Z,59.42
2022-09-20T20:31:52.975Z,59.58
2022-09-20T20:34:20.621Z,59.49
2022-09-20T20:36:47.383Z,59.58
2022-09-20T20:39:14.930Z,60.82
2022-09-20T20:41:41.768Z,60.71
2022-09-20T20:44:08.362Z,60.78
2022-09-20T20:46:36.112Z,61.26
2022-09-20T20:49:03.692Z,61.22
2022-09-20T20:51:32.927Z,60.66
2022-09-20T20:53:59.901Z,60.83
2022-09-20T20:56:29.779Z,60.86
2022-09-20T21:32:36.906Z,61.05
2022-09-20T21:35:03.648Z,61.28
2022-09-20T21:37:30.551Z,61.13
2022-09-20T21:39:57.104Z,61.10
2022-09-20T21:42:25.478Z,61.12
2022-09-20T21:44:53.015Z,61.05
2022-09-20T21:47:20.638Z,61.02
2022-09-20T22:18:37.642Z,61.71
2022-09-20T22:21:06.824Z,62.62
2022-09-20T22:23:46.976Z,62.68
2022-09-20T22:26:16.815Z,62.41
2022-09-20T22:28:43.849Z,62.87
2022-09-20T22:31:16.105Z,62.67
2022-09-20T22:33:48.280Z,62.86
2022-09-20T22:36:16.737Z,62.39
2022-09-20T22:42:46.327Z,63.03
2022-09-20T22:45:12.953Z,63.11
2022-09-20T22:47:39.478Z,62.79
2022-09-20T22:50:06.998Z,62.85
2022-09-20T22:52:33.592Z,62.75
2022-09-20T22:55:00.120Z,62.73
2022-09-20T22:57:51.859Z,62.62
2022-09-20T23:00:18.394Z,62.37
2022-09-20T23:02:44.954Z,62.42
2022-09-20T23:05:11.493Z,62.71
2022-09-20T23:07:38.041Z,62.83
2022-09-20T23:10:05.537Z,62.67
2022-09-20T23:13:03.364Z,63.13
2022-09-20T23:19:12.033Z,63.07
2022-09-20T23:21:40.234Z,62.87
2022-09-20T23:24:09.766Z,62.99
2022-09-20T23:26:37.916Z,62.98
2022-09-20T23:29:10.994Z,62.82
2022-09-20T23:31:59.461Z,62.83
2022-09-20T23:34:25.971Z,62.83
2022-09-20T23:36:52.892Z,63.02
2022-09-20T23:39:19.438Z,62.88
2022-09-20T23:41:50.603Z,62.62
2022-09-20T23:44:17.922Z,62.89
2022-09-20T23:46:44.523Z,63.32
2022-09-20T23:53:03.033Z,63.60
2022-09-20T23:55:29.737Z,64.29
2022-09-20T23:57:59.629Z,64.09
